Historique des mesures à Cassis (13260), France
Quotidien Résumé Fevrier 6, 2017 Unités:  Métrique    US   Métrique/US
« Précédent (Jour)
Suivant (Jour) »
Quotidien Hebdomadaire Mensuel Annuel Période au choix
  Maximum: Minimum: Moyenne:
Température: TemperatureC °C 8.5 °C 9.4 °C
Point de rosée: DewpointC °C 1.7 °C 2.4 °C
Humidité: Humidity % 53 % 58 %
Vitesse du vent: 0 km/h 9.8 km/h 40.2 km/h
Rafales: 0 km/h - -
Vent:- - SSE
Pression: PressurehPa hPa 998.9 hPa -
Précipitations: 0.5 mm    
Historical Graphs
 
 
Mesures pour : Fevrier 6, 2017
Heure Temperature Point de rosée Pression Vent Vitesse du vent Rafales Humidité Pluie (par heure) Conditions
TemperatureC °C DewpointC °C PressurehPa hPa Calm     Humidity % HourlyPrecipMM mm SoftwareType W/m2
00:11 9.0 °C 3.2 °C 999.2 hPa NW 26.2 km/h 26.2 km/h 67 % 0.0 mm open2300-1.11 W/m2
01:10 8.8 °C 3.0 °C 999.5 hPa WNW 23 km/h 64.2 km/h 67 % 0.0 mm open2300-1.11 W/m2
02:11 8.7 °C 2.7 °C 998.9 hPa NNW 56.6 km/h 72.6 km/h 66 % 0.0 mm open2300-1.11 W/m2
03:10 8.5 °C 2.9 °C 998.9 hPa NNE 30.1 km/h 30.7 km/h 68 % 0.0 mm open2300-1.11 W/m2
04:11 8.6 °C 3.4 °C 998.9 hPa North 42.6 km/h 80.5 km/h 70 % 0.0 mm open2300-1.11 W/m2
05:10 8.8 °C 3.6 °C 999.2 hPa NNW 33.2 km/h 46.8 km/h 70 % 0.0 mm open2300-1.11 W/m2
06:11 9.1 °C 3.3 °C 999.5 hPa NNE 57.9 km/h 61.3 km/h 67 % 0.0 mm open2300-1.11 W/m2
07:10 9.1 °C 2.8 °C 1001.2 hPa WNW 34.8 km/h 68.9 km/h 65 % 0.0 mm open2300-1.11 W/m2
08:11 9.2 °C 2.7 °C 1001.6 hPa NNE 25.4 km/h 44.6 km/h 64 % 0.0 mm open2300-1.11 W/m2
09:10 9.5 °C 2.2 °C 1000.2 hPa NE 52 km/h 68.9 km/h 60 % 0.0 mm open2300-1.11 W/m2
10:11 10.0 °C 2.3 °C 1000.9 hPa North 37 km/h 66.6 km/h 59 % 0.0 mm open2300-1.11 W/m2
11:10 10.6 °C 2.7 °C 1002.3 hPa North 47.3 km/h 50.5 km/h 58 % 0.0 mm open2300-1.11 W/m2
12:11 11.6 °C 2.6 °C 1001.9 hPa North 53.9 km/h 53.9 km/h 54 % 0.5 mm open2300-1.11 W/m2
13:10 11.9 °C 2.8 °C 1001.9 hPa NNW 49.7 km/h 117.5 km/h 54 % 0.0 mm open2300-1.11 W/m2
14:11 12.0 °C 2.7 °C 1003.3 hPa North 53.9 km/h 53.9 km/h 53 % 0.0 mm open2300-1.11 W/m2
15:10 11.8 °C 2.5 °C 1003.3 hPa North 38.8 km/h 47.3 km/h 53 % 0.0 mm open2300-1.11 W/m2
16:11 11.5 °C 2.2 °C 1003.9 hPa NNW 85.8 km/h 85.8 km/h 53 % 0.0 mm open2300-1.11 W/m2
17:10 10.9 °C 1.7 °C 1003.6 hPa NNE 53.3 km/h 53.3 km/h 53 % 0.0 mm open2300-1.11 W/m2
18:11 10.3 °C 1.9 °C 1003.9 hPa NNW 50.5 km/h 56.2 km/h 56 % 0.0 mm open2300-1.11 W/m2
19:10 9.7 °C 1.8 °C 1005.3 hPa North 33.2 km/h 71.8 km/h 58 % 0.0 mm open2300-1.11 W/m2
20:11 9.3 °C 1.9 °C 1006.3 hPa NNW 27.7 km/h 35.2 km/h 60 % 0.0 mm open2300-1.11 W/m2
21:10 9.0 °C 1.9 °C 1006.7 hPa NNW 9.8 km/h 29.5 km/h 61 % 0.0 mm open2300-1.11 W/m2
22:11 8.8 °C 2.1 °C 1007.3 hPa NNW 49.2 km/h 49.2 km/h 63 % 0.0 mm open2300-1.11 W/m2
23:10 8.9 °C 2.0 °C 1007.3 hPa WNW 34.1 km/h 34.1 km/h 62 % 0.0 mm open2300-1.11 W/m2
Observations météo à CASSIS
WU-History script by Weather Underground - 1 mb